• Join FlightAware (Why Join?)
  • Login
  • US Flag 
10:40AM EDT


 

Airport Tracker/Info


-or-


 

Live Flight TrackerFlight Track Log ✈ TCF3494 ✈ 17-Jul-2013 ✈ KORD - KLGA

Flight Track Log - Related Links

Times and Time Zones

All times are in EDT time to prevent confusion due to time zone crossing. See the TCF3494 flight status page for this flight to view local times or setup timezone preferences in your user account.

Time Position Orientation Groundspeed Altitude Reporting Facility
EDT Latitude Longitude Course Direction KTS MPH feet Rate Location/Type
08:20PM 42.0167 -87.9333 90° East 190 219 2,200  Level Chicago TRACON
08:21PM 42.0667 -87.8833 37° Northeast 256 295 3,800 2,160 Climbing Chicago TRACON
08:22PM 42.1333 -87.8167 37° Northeast 287 330 6,400 3,000 Climbing Chicago TRACON
08:23PM 42.1667 -87.7333 62° Northeast 299 344 9,600 2,700 Climbing Chicago TRACON
08:24PM 42.1408 -87.6089 106° East 305 351 12,500 1,920 Climbing Chicago Center
08:25PM 41.9667 -87.0430 90° East  Level FlightAware Approximate
08:25PM 42.1006 -87.4967 116° Southeast 328 377 14,000  Level Chicago Center
08:26PM 42.0550 -87.3686 116° Southeast 372 428 15,800 1,800 Climbing Chicago Center
08:27PM 42.0081 -87.2383 116° Southeast 386 444 17,800 1,680 Climbing Chicago Center
08:28PM 41.9597 -87.1042 116° Southeast 397 457 19,300 1,740 Climbing Chicago Center
08:29PM 41.9469 -86.9239 95° East 413 475 21,500 1,740 Climbing Chicago Center
08:30PM 41.9492 -86.7658 89° East 422 486 23,000 960 Climbing Chicago Center
08:31PM 41.9514 -86.6225 89° East 433 498 23,600 1,080 Climbing Chicago Center
08:32PM 41.9525 -86.4272 89° East 435 501 25,300 1,440 Climbing Chicago Center
08:33PM 41.9550 -86.2614 89° East 443 510 26,600 1,200 Climbing Chicago Center
08:34PM 41.9444 -86.0931 95° East 451 519 27,800 1,020 Climbing Chicago Center
08:35PM 41.9286 -85.9244 97° East 453 521 28,800 540 Climbing Chicago Center
08:36PM 41.9128 -85.7522 97° East 460 529 29,000 540 Climbing Chicago Center
08:37PM 41.8969 -85.5808 97° East 461 531 30,000 1,140 Climbing Chicago Center
08:38PM 41.8811 -85.4100 97° East 458 527 31,400 1,200 Climbing Chicago Center
08:39PM 41.8600 -85.2056 98° East 456 525 32,600 720 Climbing Chicago Center
08:40PM 41.8433 -85.0333 97° East 460 529 33,000 600 Climbing Chicago Center
08:42PM 41.8247 -84.8586 98° East 466 536 33,900 780 Climbing Chicago Center
08:43PM 41.8056 -84.6856 98° East 469 540 34,700 660 Climbing Chicago Center
08:43PM 41.7961 -84.5858 97° East 464 534 35,000 180 Climbing Cleveland Center
08:44PM 41.7814 -84.4067 96° East 464 534 35,000  Level Cleveland Center
08:45PM 41.7742 -84.2503 93° East 469 540 35,000  Level Cleveland Center
08:46PM 41.7736 -84.0664 90° East 469 540 35,000  Level Cleveland Center
08:47PM 41.7706 -83.8881 91° East 475 547 35,000  Level Cleveland Center
08:48PM 41.7692 -83.7097 91° East 480 552 35,000  Level Cleveland Center
08:49PM 41.7636 -83.5286 92° East 480 552 35,000  Level Cleveland Center
08:50PM 41.7492 -83.3525 96° East 480 552 35,000  Level Cleveland Center
08:51PM 41.7328 -83.1708 97° East 480 552 35,000  Level Cleveland Center
08:52PM 41.7136 -82.9950 98° East 480 552 35,000  Level Cleveland Center
08:53PM 41.6942 -82.8161 98° East 480 552 35,000  Level Cleveland Center
08:54PM 41.6767 -82.6403 98° East 488 562 35,000  Level Cleveland Center
08:55PM 41.6572 -82.4425 97° East 488 562 35,000  Level Cleveland Center
08:56PM 41.6411 -82.2697 97° East 482 555 35,000  Level Cleveland Center
08:57PM 41.6206 -82.0914 99° East 487 560 35,000  Level Cleveland Center
08:58PM 41.6000 -81.9075 98° East 487 560 35,000  Level Cleveland Center
08:59PM 41.5850 -81.7492 97° East 481 554 35,000  Level Cleveland Center
09:00PM 41.5658 -81.5739 98° East 487 560 35,000  Level Cleveland Center
09:01PM 41.5444 -81.3961 99° East 487 560 35,000  Level Cleveland Center
09:02PM 41.5206 -81.1989 99° East 487 560 35,000  Level Cleveland Center
09:03PM 41.5047 -81.0211 97° East 487 560 35,000  Level Cleveland Center
09:04PM 41.4886 -80.8464 97° East 482 555 35,000  Level Cleveland Center
09:05PM 41.4722 -80.6664 97° East 482 555 35,000  Level Cleveland Center
09:06PM 41.4556 -80.4917 97° East 475 547 35,000  Level Cleveland Center
09:07PM 41.4406 -80.3144 96° East 475 547 35,000  Level Cleveland Center
09:08PM 41.4233 -80.1372 97° East 481 554 35,000  Level Cleveland Center
09:09PM 41.4058 -79.9631 98° East 481 554 35,000  Level Cleveland Center
09:10PM 41.3903 -79.7861 97° East 481 554 35,000  Level Cleveland Center
09:11PM 41.3700 -79.6036 98° East 488 562 35,000  Level Cleveland Center
09:12PM 41.3539 -79.4269 97° East 488 562 35,000  Level Cleveland Center
09:13PM 41.3353 -79.2503 98° East 488 562 35,000  Level Cleveland Center
09:14PM 41.3164 -79.0736 98° East 483 556 35,000  Level Cleveland Center
09:15PM 41.2992 -78.8917 97° East 483 556 35,000  Level Cleveland Center
09:16PM 41.2797 -78.7153 98° East 483 556 35,000  Level Cleveland Center
09:17PM 41.2600 -78.5392 98° East 483 556 35,000 -360 Level Cleveland Center
09:18PM 41.2358 -78.3147 98° East 508 585 34,200 -900 Descending New York Center
09:19PM 41.2136 -78.1383 99° East 503 579 33,000 -600 Descending New York Center
09:20PM 41.1911 -77.9594 99° East 498 573 33,000  Level New York Center
09:21PM 41.1686 -77.7806 99° East 488 562 33,000  Level New York Center
09:22PM 41.1475 -77.6075 99° East 488 562 33,000  Level New York Center
09:23PM 41.1242 -77.4314 100° East 488 562 33,000 -60 Level New York Center
09:24PM 41.0992 -77.2417 100° East 488 562 32,900 -1,260 Descending New York Center
09:25PM 41.0756 -77.0633 100° East 482 555 30,500 -2,580 Descending New York Center
09:26PM 41.0514 -76.8850 100° East 482 555 27,900 -2,580 Descending New York Center
09:27PM 41.0267 -76.7175 101° East 481 554 25,400 -2,220 Descending New York Center
09:28PM 41.0019 -76.5833 104° East 471 542 23,500 -2,340 Descending New York Center
09:29PM 40.9586 -76.4011 107° East 456 525 20,800 -2,580 Descending New York Center
09:30PM 40.9275 -76.2694 107° East 430 495 18,500 -1,980 Descending New York Center
09:31PM 40.8925 -76.1239 108° East 418 481 16,900 -1,560 Descending New York Center
09:32PM 40.8569 -75.9839 109° East 410 472 15,400 -1,620 Descending New York Center
09:33PM 40.8219 -75.8331 107° East 400 460 13,700 -1,260 Descending New York Center
09:34PM 40.7881 -75.6964 108° East 393 452 13,000 -360 Descending New York Center
09:35PM 40.7539 -75.5622 109° East 393 452 13,000  Level New York Center
09:36PM 40.7236 -75.4369 108° East 393 452 13,000 -300 Level New York Center
09:37PM 40.6919 -75.2842 105° East 393 452 12,500 -600 Descending New York Center
09:38PM 40.6617 -75.1483 106° East 388 447 11,900 -660 Descending New York Center
09:39PM 40.5964 -75.0539 132° Southeast 371 427 11,200 -900 Descending New York Center
09:40PM 40.5467 -74.9333 118° Southeast 384 442 10,100 -660 Descending New York Center
09:41PM 40.5056 -74.7944 111° Southeast 379 436 10,000 -60 Descending New York Center
09:42PM 40.4678 -74.6775 113° Southeast 373 429 10,000  Level New York Center
09:43PM 40.4364 -74.5558 109° East 367 422 10,000 -660 Level New York Center
09:44PM 40.4542 -74.4503 77° East 319 367 8,700 -1,020 Descending New York Center
09:45PM 40.4825 -74.3456 70° East 283 326 8,000 -360 Descending New York Center
09:46PM 40.5061 -74.2567 71° East 282 325 8,000 -420 Level New York Center
09:47PM 40.5319 -74.1489 72° East 282 325 7,200 -1,320 Descending New York Center
09:48PM 40.5614 -74.0656 65° Northeast 282 325 5,400 -1,620 Descending New York Center
09:49PM 40.6394 -74.0364 16° North 245 282 4,000 -720 Descending New York Center
09:50PM 40.7044 -74.0231 North 260 299 4,000 -540 Level New York Center
09:51PM 40.7725 -73.9689 31° Northeast 260 299 3,000 -540 Descending New York Center
09:52PM 40.8322 -73.9142 35° Northeast 261 300 3,000 -180 Level New York Center
09:53PM 40.8794 -73.8642 39° Northeast 237 273 2,700 -600 Descending New York Center
09:55PM 40.8500 -73.8167 129° Southeast 158 182 1,600 -840 Descending New York TRACON